Time;durP1;ratioP1;P1;durP2;ratioP2;P2;SDS_P1;SDS_P2;PMS_P1;PMS_P2;Temp;Humidity;BMP_temperature;BMP_pressure;BME280_temperature;BME280_humidity;BME280_pressure;Samples;Min_cycle;Max_cycle;Signal;HPM_P1;HPM_P2
2023/06/24 00:02:05;;;;;;;;;;;;;;;;;;5048570;28;1100;-50
2023/06/24 00:04:30;;;;;;;;;;;;;;;;;;5048873;28;1071;-53
2023/06/24 00:06:58;;;;;;;;;;;;;;;;;;5046984;28;1918;-52
2023/06/24 00:09:24;;;;;;;;;;;;;;;;;;5040835;28;1380;-51
2023/06/24 00:11:49;;;;;;;;;;;;;;;;;;5039430;28;1100;-50
2023/06/24 00:14:15;;;;;;;;;;;;;;;;;;5044886;28;1086;-52
2023/06/24 00:16:41;;;;;;;;;;;;;;;;;;5041210;28;1746;-52
2023/06/24 00:19:08;;;;;;;;;;;;;;;;;;5044044;28;1087;-51
2023/06/24 00:21:33;;;;;;;;;;;;;;;;;;5032290;28;1651;-53
2023/06/24 00:23:58;;;;;;;;;;;;;;;;;;5037496;28;5053;-54
2023/06/24 00:26:24;;;;;;;;;;;;;;;;;;5048250;28;1929;-53
2023/06/24 00:28:49;;;;;;;;;;;;;;;;;;5048260;28;1174;-51
2023/06/24 00:31:14;;;;;;;;;;;;;;;;;;5045991;28;1078;-51
2023/06/24 00:33:40;;;;;;;;;;;;;;;;;;5047872;28;1076;-53
2023/06/24 00:36:06;;;;;;;;;;;;;;;;;;5047050;28;1198;-53
2023/06/24 00:38:32;;;;;;;;;;;;;;;;;;5044594;28;1162;-53
2023/06/24 00:40:57;;;;;;;;;;;;;;;;;;5047986;28;1459;-52
2023/06/24 00:43:23;;;;;;;;;;;;;;;;;;5047641;28;1147;-53
2023/06/24 00:45:48;;;;;;;;;;;;;;;;;;5047599;28;1969;-53
2023/06/24 00:48:14;;;;;;;;;;;;;;;;;;5046302;28;1197;-52
2023/06/24 00:50:42;;;;;;;;;;;;;;;;;;5043190;28;1153;-53
2023/06/24 00:53:07;;;;;;;;;;;;;;;;;;5046541;28;1189;-54
2023/06/24 00:55:32;;;;;;;;;;;;;;;;;;5039926;28;1578;-51
2023/06/24 00:57:59;;;;;;;;;;;;;;;;;;5047926;28;1265;-53
2023/06/24 01:00:25;;;;;;;;;;;;;;;;;;5046105;28;1326;-53
2023/06/24 01:02:50;;;;;;;;;;;;;;;;;;5044563;28;1245;-51
2023/06/24 01:05:15;;;;;;;;;;;;;;;;;;5033324;28;1938;-51
2023/06/24 01:07:41;;;;;;;;;;;;;;;;;;5047209;28;1255;-50
2023/06/24 01:10:06;;;;;;;;;;;;;;;;;;5042183;28;1316;-48
2023/06/24 01:12:35;;;;;;;;;;;;;;;;;;5045257;28;1894;-50
2023/06/24 01:15:01;;;;;;;;;;;;;;;;;;5037956;28;1084;-50
2023/06/24 01:17:31;;;;;;;;;;;;;;;;;;5048055;28;1155;-52
2023/06/24 01:20:00;;;;;;;;;;;;;;;;;;5050959;28;1642;-50
2023/06/24 01:22:35;;;;;;;;;;;;;;;;;;5058657;28;1109;-50
2023/06/24 01:25:03;;;;;;;;;;;;;;;;;;5043544;28;5255;-54
2023/06/24 01:27:45;;;;;;;;;;;;;;;;;;5045710;28;1294;-52
2023/06/24 01:30:31;;;;;;;;;;;;;;;;;;5043354;28;1175;-53
2023/06/24 01:32:57;;;;;;;;;;;;;;;;;;5037064;28;1405;-49
2023/06/24 01:35:28;;;;;;;;;;;;;;;;;;5041512;28;1130;-50
2023/06/24 01:37:54;;;;;;;;;;;;;;;;;;5044435;28;1223;-53
2023/06/24 01:40:26;;;;;;;;;;;;;;;;;;5043919;28;1131;-54
2023/06/24 01:42:51;;;;;;;;;;;;;;;;;;5047016;28;1285;-51
2023/06/24 01:45:19;;;;;;;;;;;;;;;;;;5060027;28;1963;-51
2023/06/24 01:47:45;;;;;;;;;;;;;;;;;;5047168;28;1191;-53
2023/06/24 01:50:11;;;;;;;;;;;;;;;;;;5045901;28;1213;-52
2023/06/24 01:52:37;;;;;;;;;;;;;;;;;;5044795;28;1141;-53
2023/06/24 01:55:02;;;;;;;;;;;;;;;;;;5036648;28;1282;-53
2023/06/24 01:57:27;;;;;;;;;;;;;;;;;;5050971;28;1120;-53
2023/06/24 01:59:53;;;;;;;;;;;;;;;;;;5043537;28;1694;-54
2023/06/24 02:02:20;;;;;;;;;;;;;;;;;;5050948;28;1112;-54
2023/06/24 02:04:45;;;;;;;;;;;;;;;;;;5049246;28;1257;-51
2023/06/24 02:07:10;;;;;;;;;;;;;;;;;;5051330;28;1979;-54
2023/06/24 02:09:35;;;;;;;;;;;;;;;;;;5051395;28;2250;-51
2023/06/24 02:12:01;;;;;;;;;;;;;;;;;;5050912;28;1101;-54
2023/06/24 02:14:26;;;;;;;;;;;;;;;;;;5057780;28;1235;-54
2023/06/24 02:16:56;;;;;;;;;;;;;;;;;;5045758;28;1113;-52
2023/06/24 02:19:22;;;;;;;;;;;;;;;;;;5051112;28;1179;-51
2023/06/24 02:21:47;;;;;;;;;;;;;;;;;;5049571;28;1801;-50
2023/06/24 02:24:13;;;;;;;;;;;;;;;;;;5043504;28;5041;-50
2023/06/24 02:26:40;;;;;;;;;;;;;;;;;;5049109;28;1902;-54
2023/06/24 02:29:06;;;;;;;;;;;;;;;;;;5041048;28;1333;-52
2023/06/24 02:31:32;;;;;;;;;;;;;;;;;;5044944;28;1116;-50
2023/06/24 02:33:57;;;;;;;;;;;;;;;;;;5045728;28;1225;-55
2023/06/24 02:36:22;;;;;;;;;;;;;;;;;;5043084;28;1082;-52
2023/06/24 02:38:48;;;;;;;;;;;;;;;;;;5045835;28;1044;-50
2023/06/24 02:41:14;;;;;;;;;;;;;;;;;;5043542;28;1127;-53
2023/06/24 02:43:39;;;;;;;;;;;;;;;;;;5036906;28;1187;-53
2023/06/24 02:46:04;;;;;;;;;;;;;;;;;;5049788;28;2001;-52
2023/06/24 02:48:29;;;;;;;;;;;;;;;;;;5050194;28;1222;-52
2023/06/24 02:50:55;;;;;;;;;;;;;;;;;;5048665;28;1148;-53
2023/06/24 02:53:20;;;;;;;;;;;;;;;;;;5050155;28;1221;-51
2023/06/24 02:55:45;;;;;;;;;;;;;;;;;;5041818;28;1698;-54
2023/06/24 02:58:11;;;;;;;;;;;;;;;;;;5057282;28;1586;-51
2023/06/24 03:00:36;;;;;;;;;;;;;;;;;;5048644;28;1228;-52
2023/06/24 03:03:02;;;;;;;;;;;;;;;;;;5049065;28;1156;-52
2023/06/24 03:05:27;;;;;;;;;;;;;;;;;;5048192;28;1914;-52
2023/06/24 03:07:53;;;;;;;;;;;;;;;;;;5048894;28;1210;-53
2023/06/24 03:10:18;;;;;;;;;;;;;;;;;;5043477;28;1124;-52
2023/06/24 03:12:43;;;;;;;;;;;;;;;;;;5048093;28;1253;-52
2023/06/24 03:15:09;;;;;;;;;;;;;;;;;;5050115;28;1298;-52
2023/06/24 03:17:34;;;;;;;;;;;;;;;;;;5048209;28;1264;-52
2023/06/24 03:19:59;;;;;;;;;;;;;;;;;;5049857;28;1622;-53
2023/06/24 03:22:25;;;;;;;;;;;;;;;;;;5050558;28;1090;-53
2023/06/24 03:24:51;;;;;;;;;;;;;;;;;;5036863;28;5147;-53
2023/06/24 03:27:16;;;;;;;;;;;;;;;;;;5049416;28;1914;-51
2023/06/24 03:29:42;;;;;;;;;;;;;;;;;;5050021;28;1095;-53
2023/06/24 03:32:07;;;;;;;;;;;;;;;;;;5049914;28;1326;-52
2023/06/24 03:34:32;;;;;;;;;;;;;;;;;;5049668;28;1081;-52
2023/06/24 03:36:58;;;;;;;;;;;;;;;;;;5049560;28;1087;-50
2023/06/24 03:39:23;;;;;;;;;;;;;;;;;;5039434;28;1267;-51
2023/06/24 03:41:48;;;;;;;;;;;;;;;;;;5049516;28;1209;-51
2023/06/24 03:44:13;;;;;;;;;;;;;;;;;;5045092;28;1188;-52
2023/06/24 03:46:39;;;;;;;;;;;;;;;;;;5046724;28;1973;-52
2023/06/24 03:49:04;;;;;;;;;;;;;;;;;;5039078;28;1133;-51
2023/06/24 03:51:29;;;;;;;;;;;;;;;;;;5045138;28;1039;-51
2023/06/24 03:53:54;;;;;;;;;;;;;;;;;;5032520;28;1392;-51
2023/06/24 03:56:20;;;;;;;;;;;;;;;;;;5047743;28;1156;-55
2023/06/24 03:58:45;;;;;;;;;;;;;;;;;;5049267;28;1456;-53
2023/06/24 04:01:11;;;;;;;;;;;;;;;;;;5048758;28;1767;-54
2023/06/24 04:03:36;;;;;;;;;;;;;;;;;;5049113;28;1384;-52
2023/06/24 04:06:01;;;;;;;;;;;;;;;;;;5045498;28;1973;-54
2023/06/24 04:08:29;;;;;;;;;;;;;;;;;;5047032;28;1321;-52
2023/06/24 04:10:54;;;;;;;;;;;;;;;;;;5048772;28;1295;-49
2023/06/24 04:13:19;;;;;;;;;;;;;;;;;;5025734;28;1118;-54
2023/06/24 04:15:44;;;;;;;;;;;;;;;;;;5047449;28;1291;-52
2023/06/24 04:18:10;;;;;;;;;;;;;;;;;;5048692;28;1269;-52
2023/06/24 04:20:35;;;;;;;;;;;;;;;;;;5040272;28;1586;-54
2023/06/24 04:23:01;;;;;;;;;;;;;;;;;;5047073;28;5176;-53
2023/06/24 04:25:26;;;;;;;;;;;;;;;;;;5040819;28;1969;-52
2023/06/24 04:27:51;;;;;;;;;;;;;;;;;;5048799;28;1097;-52
2023/06/24 04:30:16;;;;;;;;;;;;;;;;;;5048669;28;1315;-53
2023/06/24 04:32:42;;;;;;;;;;;;;;;;;;5048768;28;1274;-54
2023/06/24 04:35:07;;;;;;;;;;;;;;;;;;5040465;28;1277;-52
2023/06/24 04:37:33;;;;;;;;;;;;;;;;;;5047467;28;1107;-53
2023/06/24 04:39:58;;;;;;;;;;;;;;;;;;5048406;28;1252;-54
2023/06/24 04:42:24;;;;;;;;;;;;;;;;;;5048493;28;1196;-50
2023/06/24 04:44:52;;;;;;;;;;;;;;;;;;5042148;28;1221;-52
2023/06/24 04:47:17;;;;;;;;;;;;;;;;;;5080616;28;1897;-52
2023/06/24 04:49:43;;;;;;;;;;;;;;;;;;5036367;28;1233;-53
2023/06/24 04:52:08;;;;;;;;;;;;;;;;;;5046825;28;1231;-52
2023/06/24 04:54:33;;;;;;;;;;;;;;;;;;5040934;28;1380;-51
2023/06/24 04:56:58;;;;;;;;;;;;;;;;;;5042110;28;3495;-52
2023/06/24 04:59:24;;;;;;;;;;;;;;;;;;5047454;28;3508;-51
2023/06/24 05:01:49;;;;;;;;;;;;;;;;;;5044095;28;2994;-52
2023/06/24 05:04:14;;;;;;;;;;;;;;;;;;5039327;28;3267;-50
2023/06/24 05:06:39;;;;;;;;;;;;;;;;;;5044707;28;3021;-54
2023/06/24 05:09:05;;;;;;;;;;;;;;;;;;5040197;28;1171;-49
2023/06/24 05:11:30;;;;;;;;;;;;;;;;;;5038251;28;1109;-52
2023/06/24 05:13:56;;;;;;;;;;;;;;;;;;5037684;28;1092;-49
2023/06/24 05:16:23;;;;;;;;;;;;;;;;;;5037694;28;1070;-50
2023/06/24 05:18:48;;;;;;;;;;;;;;;;;;5043923;28;1636;-52
2023/06/24 05:21:13;;;;;;;;;;;;;;;;;;5038278;28;2836;-54
2023/06/24 05:23:38;;;;;;;;;;;;;;;;;;5045832;28;4958;-53
2023/06/24 05:26:03;;;;;;;;;;;;;;;;;;5043102;28;1963;-52
2023/06/24 05:28:29;;;;;;;;;;;;;;;;;;5043970;28;3072;-50
2023/06/24 05:30:54;;;;;;;;;;;;;;;;;;5041641;28;3199;-51
2023/06/24 05:33:19;;;;;;;;;;;;;;;;;;5045969;28;3282;-51
2023/06/24 05:35:44;;;;;;;;;;;;;;;;;;5036919;28;3130;-50
2023/06/24 05:38:10;;;;;;;;;;;;;;;;;;5047254;28;1137;-55
2023/06/24 05:40:35;;;;;;;;;;;;;;;;;;5062464;28;1148;-52
2023/06/24 05:43:00;;;;;;;;;;;;;;;;;;5045348;28;2205;-53
2023/06/24 05:45:26;;;;;;;;;;;;;;;;;;5036147;28;3010;-52
2023/06/24 05:47:51;;;;;;;;;;;;;;;;;;5046360;28;1131;-51
2023/06/24 05:50:16;;;;;;;;;;;;;;;;;;5037510;28;3251;-48
2023/06/24 05:52:41;;;;;;;;;;;;;;;;;;5045924;28;3033;-52
2023/06/24 05:55:07;;;;;;;;;;;;;;;;;;5038786;28;3215;-53
2023/06/24 05:57:32;;;;;;;;;;;;;;;;;;5043592;28;3267;-52
2023/06/24 05:59:57;;;;;;;;;;;;;;;;;;5032297;28;3097;-52
2023/06/24 06:02:23;;;;;;;;;;;;;;;;;;5043304;28;3216;-53
2023/06/24 06:04:49;;;;;;;;;;;;;;;;;;5044996;28;1280;-50
2023/06/24 06:07:15;;;;;;;;;;;;;;;;;;5045842;28;2276;-53
2023/06/24 06:09:40;;;;;;;;;;;;;;;;;;5046586;28;1132;-52
2023/06/24 06:12:06;;;;;;;;;;;;;;;;;;5043354;28;3203;-49
2023/06/24 06:14:32;;;;;;;;;;;;;;;;;;5045306;28;3171;-51
2023/06/24 06:16:57;;;;;;;;;;;;;;;;;;5038395;28;3239;-50
2023/06/24 06:19:22;;;;;;;;;;;;;;;;;;5041109;28;1840;-50
2023/06/24 06:21:48;;;;;;;;;;;;;;;;;;5047922;28;3962;-52
2023/06/24 06:24:14;;;;;;;;;;;;;;;;;;5038944;28;5041;-50
2023/06/24 06:26:43;;;;;;;;;;;;;;;;;;5041077;28;3235;-51
2023/06/24 06:29:08;;;;;;;;;;;;;;;;;;5066907;28;3259;-52
2023/06/24 06:31:35;;;;;;;;;;;;;;;;;;5042449;28;3223;-50
2023/06/24 06:34:01;;;;;;;;;;;;;;;;;;5046092;28;1112;-48
2023/06/24 06:36:27;;;;;;;;;;;;;;;;;;5038827;28;3104;-52
2023/06/24 06:38:52;;;;;;;;;;;;;;;;;;5039073;28;3215;-53
2023/06/24 06:41:23;;;;;;;;;;;;;;;;;;5034213;28;3129;-49
2023/06/24 06:43:49;;;;;;;;;;;;;;;;;;5043210;28;3247;-51
2023/06/24 06:46:14;;;;;;;;;;;;;;;;;;5059925;28;3289;-52
2023/06/24 06:48:39;;;;;;;;;;;;;;;;;;5041383;28;3293;-49
2023/06/24 06:51:04;;;;;;;;;;;;;;;;;;5039819;28;3265;-48
2023/06/24 06:53:30;;;;;;;;;;;;;;;;;;5045835;28;3311;-51
2023/06/24 06:55:55;;;;;;;;;;;;;;;;;;5037755;28;3194;-51
2023/06/24 06:58:20;;;;;;;;;;;;;;;;;;5042373;28;3184;-50
2023/06/24 07:00:46;;;;;;;;;;;;;;;;;;5042646;28;3296;-52
2023/06/24 07:03:11;;;;;;;;;;;;;;;;;;5046574;28;3196;-50
2023/06/24 07:05:37;;;;;;;;;;;;;;;;;;5044648;28;2173;-51
2023/06/24 07:08:02;;;;;;;;;;;;;;;;;;5048397;28;2088;-48
2023/06/24 07:10:28;;;;;;;;;;;;;;;;;;5034552;28;1196;-51
2023/06/24 07:12:57;;;;;;;;;;;;;;;;;;5045660;28;1159;-51
2023/06/24 07:15:23;;;;;;;;;;;;;;;;;;5042641;28;3382;-52
2023/06/24 07:17:49;;;;;;;;;;;;;;;;;;5039807;28;1532;-49
2023/06/24 07:20:14;;;;;;;;;;;;;;;;;;5042947;28;1161;-51
2023/06/24 07:22:39;;;;;;;;;;;;;;;;;;5042477;28;1148;-49
2023/06/24 07:25:04;;;;;;;;;;;;;;;;;;5040797;28;5286;-48
2023/06/24 07:27:30;;;;;;;;;;;;;;;;;;5046432;28;3144;-50
2023/06/24 07:29:55;;;;;;;;;;;;;;;;;;5044221;28;3258;-52
2023/06/24 07:32:20;;;;;;;;;;;;;;;;;;5053724;28;3284;-49
2023/06/24 07:34:46;;;;;;;;;;;;;;;;;;5040919;28;3308;-49
2023/06/24 07:37:11;;;;;;;;;;;;;;;;;;5043350;28;1152;-50
2023/06/24 07:39:36;;;;;;;;;;;;;;;;;;5042149;28;3229;-50
2023/06/24 07:42:01;;;;;;;;;;;;;;;;;;5035327;28;3269;-49
2023/06/24 07:44:27;;;;;;;;;;;;;;;;;;5038884;28;3246;-49
2023/06/24 07:46:52;;;;;;;;;;;;;;;;;;5036497;28;3184;-50
2023/06/24 07:49:18;;;;;;;;;;;;;;;;;;5037809;28;2927;-51
2023/06/24 07:51:44;;;;;;;;;;;;;;;;;;5033394;28;3230;-49
2023/06/24 07:54:10;;;;;;;;;;;;;;;;;;5034967;28;3240;-50
2023/06/24 07:56:35;;;;;;;;;;;;;;;;;;5044208;28;3239;-51
2023/06/24 07:59:00;;;;;;;;;;;;;;;;;;5042060;28;3454;-52
2023/06/24 08:01:25;;;;;;;;;;;;;;;;;;5039658;28;3319;-53
2023/06/24 08:03:51;;;;;;;;;;;;;;;;;;5048923;28;1179;-50
2023/06/24 08:06:16;;;;;;;;;;;;;;;;;;5038870;28;2036;-52
2023/06/24 08:08:41;;;;;;;;;;;;;;;;;;5048582;28;1263;-52
2023/06/24 08:11:08;;;;;;;;;;;;;;;;;;5048891;28;1283;-50
2023/06/24 08:13:33;;;;;;;;;;;;;;;;;;5040206;28;4129;-52
2023/06/24 08:15:58;;;;;;;;;;;;;;;;;;5040126;28;3026;-49
2023/06/24 08:18:24;;;;;;;;;;;;;;;;;;5043960;28;1674;-50
2023/06/24 08:20:49;;;;;;;;;;;;;;;;;;5033121;28;2613;-48
2023/06/24 08:23:14;;;;;;;;;;;;;;;;;;5039188;28;5189;-50
2023/06/24 08:25:40;;;;;;;;;;;;;;;;;;5043502;28;1971;-49
2023/06/24 08:28:05;;;;;;;;;;;;;;;;;;5043065;28;1148;-49
2023/06/24 08:30:30;;;;;;;;;;;;;;;;;;5045745;28;3239;-57
2023/06/24 08:32:56;;;;;;;;;;;;;;;;;;5066566;28;3326;-53
2023/06/24 08:35:21;;;;;;;;;;;;;;;;;;5040500;28;3276;-53
2023/06/24 08:37:47;;;;;;;;;;;;;;;;;;5042270;28;3040;-54
2023/06/24 08:40:12;;;;;;;;;;;;;;;;;;5022415;28;3509;-55
2023/06/24 08:42:38;;;;;;;;;;;;;;;;;;5032107;28;3338;-60
2023/06/24 08:45:03;;;;;;;;;;;;;;;;;;5037520;28;3409;-60
2023/06/24 08:47:31;;;;;;;;;;;;;;;;;;5027832;28;6378;-60
2023/06/24 08:50:08;;;;;;;;;;;;;;;;;;5042737;28;5351;-58
2023/06/24 08:52:35;;;;;;;;;;;;;;;;;;5034147;28;5318;-59
2023/06/24 08:55:00;;;;;;;;;;;;;;;;;;5039826;28;5254;-59
2023/06/24 08:57:26;;;;;;;;;;;;;;;;;;5033590;28;5058;-59
2023/06/24 08:59:51;;;;;;;;;;;;;;;;;;5067420;28;4953;-58
2023/06/24 09:02:16;;;;;;;;;;;;;;;;;;5037148;28;5021;-59
2023/06/24 09:04:42;;;;;;;;;;;;;;;;;;5024113;28;6916;-59
2023/06/24 09:07:08;;;;;;;;;;;;;;;;;;5035452;28;5588;-58
2023/06/24 09:09:34;;;;;;;;;;;;;;;;;;5037361;28;1987;-58
2023/06/24 09:12:00;;;;;;;;;;;;;;;;;;5020921;28;5207;-60
2023/06/24 09:14:26;;;;;;;;;;;;;;;;;;5037540;28;3407;-57
2023/06/24 09:16:58;;;;;;;;;;;;;;;;;;5037231;28;3547;-59
2023/06/24 09:19:24;;;;;;;;;;;;;;;;;;5039729;28;3315;-55
2023/06/24 09:21:49;;;;;;;;;;;;;;;;;;5034182;28;5244;-55
2023/06/24 09:24:15;;;;;;;;;;;;;;;;;;5040367;28;1970;-55
2023/06/24 09:26:42;;;;;;;;;;;;;;;;;;5038330;28;1971;-55
2023/06/24 09:29:08;;;;;;;;;;;;;;;;;;5041997;28;1165;-53
2023/06/24 09:31:33;;;;;;;;;;;;;;;;;;5017538;28;6293;-59
2023/06/24 09:33:59;;;;;;;;;;;;;;;;;;5054831;28;5491;-59
2023/06/24 09:36:24;;;;;;;;;;;;;;;;;;5033340;28;5452;-57
2023/06/24 09:38:49;;;;;;;;;;;;;;;;;;5039541;28;1742;-60
2023/06/24 09:41:15;;;;;;;;;;;;;;;;;;5033595;28;1580;-59
2023/06/24 09:43:42;;;;;;;;;;;;;;;;;;5038635;28;1780;-58
2023/06/24 09:46:08;;;;;;;;;;;;;;;;;;5040183;28;1979;-60
2023/06/24 09:48:34;;;;;;;;;;;;;;;;;;5040327;28;1844;-57
2023/06/24 09:51:00;;;;;;;;;;;;;;;;;;5032840;28;1900;-61
2023/06/24 09:53:26;;;;;;;;;;;;;;;;;;5042430;28;1792;-58
2023/06/24 09:55:52;;;;;;;;;;;;;;;;;;5031592;28;1686;-58
2023/06/24 09:58:18;;;;;;;;;;;;;;;;;;5035380;28;1797;-61
2023/06/24 10:00:43;;;;;;;;;;;;;;;;;;5032358;28;1817;-62
2023/06/24 10:03:08;;;;;;;;;;;;;;;;;;5051172;28;1780;-65
2023/06/24 10:05:33;;;;;;;;;;;;;;;;;;5039311;28;1914;-58
2023/06/24 10:07:59;;;;;;;;;;;;;;;;;;5031841;28;1790;-60
2023/06/24 10:10:24;;;;;;;;;;;;;;;;;;5040722;28;1675;-58
2023/06/24 10:12:49;;;;;;;;;;;;;;;;;;5042677;28;1763;-60
2023/06/24 10:15:15;;;;;;;;;;;;;;;;;;5036916;28;2139;-61
2023/06/24 10:17:40;;;;;;;;;;;;;;;;;;5034848;28;2033;-60
2023/06/24 10:20:06;;;;;;;;;;;;;;;;;;5022903;28;6441;-59
2023/06/24 10:22:31;;;;;;;;;;;;;;;;;;5034260;28;5161;-60
2023/06/24 10:25:00;;;;;;;;;;;;;;;;;;5032707;28;5297;-60
2023/06/24 10:27:27;;;;;;;;;;;;;;;;;;5042346;28;5254;-60
2023/06/24 10:29:52;;;;;;;;;;;;;;;;;;5039141;28;5115;-59
2023/06/24 10:32:18;;;;;;;;;;;;;;;;;;5045299;28;5333;-60
2023/06/24 10:34:44;;;;;;;;;;;;;;;;;;5036711;28;4435;-61
2023/06/24 10:37:12;;;;;;;;;;;;;;;;;;5075449;28;5160;-60
2023/06/24 10:39:38;;;;;;;;;;;;;;;;;;5036570;28;4576;-60
2023/06/24 10:42:25;;;;;;;;;;;;;;;;;;5042997;28;3296;-60
2023/06/24 10:44:50;;;;;;;;;;;;;;;;;;5040627;28;4481;-60
2023/06/24 10:47:16;;;;;;;;;;;;;;;;;;5043178;28;4704;-60
2023/06/24 10:49:41;;;;;;;;;;;;;;;;;;5026052;28;5156;-59
2023/06/24 10:52:10;;;;;;;;;;;;;;;;;;5037554;28;5146;-59
2023/06/24 10:54:35;;;;;;;;;;;;;;;;;;5040265;28;5339;-59
2023/06/24 10:57:01;;;;;;;;;;;;;;;;;;5032684;28;4519;-61
2023/06/24 10:59:26;;;;;;;;;;;;;;;;;;5040966;28;4684;-63
2023/06/24 11:01:52;;;;;;;;;;;;;;;;;;5047849;28;4577;-61
2023/06/24 11:04:17;;;;;;;;;;;;;;;;;;5040130;28;4576;-62
2023/06/24 11:06:43;;;;;;;;;;;;;;;;;;5037710;28;5070;-63
2023/06/24 11:09:08;;;;;;;;;;;;;;;;;;5039240;28;3308;-62
2023/06/24 11:11:33;;;;;;;;;;;;;;;;;;5038920;28;4960;-64
2023/06/24 11:13:58;;;;;;;;;;;;;;;;;;5042585;28;4604;-62
2023/06/24 11:16:23;;;;;;;;;;;;;;;;;;5045769;28;4953;-64
2023/06/24 11:18:49;;;;;;;;;;;;;;;;;;5039381;28;5333;-61
2023/06/24 11:21:14;;;;;;;;;;;;;;;;;;5038467;28;3311;-60
2023/06/24 11:23:39;;;;;;;;;;;;;;;;;;5044063;28;5150;-62
2023/06/24 11:26:05;;;;;;;;;;;;;;;;;;5036274;28;5320;-62
2023/06/24 11:28:31;;;;;;;;;;;;;;;;;;5046141;28;5188;-62
2023/06/24 11:30:57;;;;;;;;;;;;;;;;;;5044916;28;4887;-61
2023/06/24 11:33:28;;;;;;;;;;;;;;;;;;5040736;28;1922;-63
2023/06/24 11:35:53;;;;;;;;;;;;;;;;;;5034859;28;6356;-62
2023/06/24 11:38:19;;;;;;;;;;;;;;;;;;5040808;28;5407;-61
2023/06/24 11:40:44;;;;;;;;;;;;;;;;;;5040365;28;5256;-62
2023/06/24 11:43:09;;;;;;;;;;;;;;;;;;5044537;28;4638;-62
2023/06/24 11:45:34;;;;;;;;;;;;;;;;;;5041528;28;3208;-62
2023/06/24 11:48:07;;;;;;;;;;;;;;;;;;5030717;28;4880;-66
2023/06/24 11:50:33;;;;;;;;;;;;;;;;;;5024570;28;6336;-60
2023/06/24 11:52:59;;;;;;;;;;;;;;;;;;5028857;28;5394;-62
2023/06/24 11:55:24;;;;;;;;;;;;;;;;;;5030330;28;5552;-59
2023/06/24 11:58:19;;;;;;;;;;;;;;;;;;4993033;28;6407;-60
2023/06/24 12:00:46;;;;;;;;;;;;;;;;;;5039631;28;5414;-63
2023/06/24 12:03:11;;;;;;;;;;;;;;;;;;5071960;28;5462;-65
2023/06/24 12:05:37;;;;;;;;;;;;;;;;;;5044159;28;1906;-63
2023/06/24 12:08:03;;;;;;;;;;;;;;;;;;5038340;28;2165;-59
2023/06/24 12:10:29;;;;;;;;;;;;;;;;;;5024642;28;6667;-62
2023/06/24 12:12:54;;;;;;;;;;;;;;;;;;5038852;28;5668;-62
2023/06/24 12:15:19;;;;;;;;;;;;;;;;;;5042691;28;5698;-62
2023/06/24 12:17:45;;;;;;;;;;;;;;;;;;5043309;28;5429;-61
2023/06/24 12:20:10;;;;;;;;;;;;;;;;;;5037744;28;1878;-61
2023/06/24 12:22:36;;;;;;;;;;;;;;;;;;5039330;28;1635;-55
2023/06/24 12:25:02;;;;;;;;;;;;;;;;;;5023443;28;6374;-62
2023/06/24 12:27:28;;;;;;;;;;;;;;;;;;5038317;28;5328;-62
2023/06/24 12:29:53;;;;;;;;;;;;;;;;;;5037479;28;5690;-60
2023/06/24 12:32:18;;;;;;;;;;;;;;;;;;5038192;28;5038;-64
2023/06/24 12:34:43;;;;;;;;;;;;;;;;;;5048957;28;5948;-60
2023/06/24 12:37:09;;;;;;;;;;;;;;;;;;5053513;28;5075;-60
2023/06/24 12:39:34;;;;;;;;;;;;;;;;;;5039042;28;5021;-59
2023/06/24 12:41:59;;;;;;;;;;;;;;;;;;5037818;28;5230;-61
2023/06/24 12:44:24;;;;;;;;;;;;;;;;;;5036891;28;4963;-60
2023/06/24 12:46:50;;;;;;;;;;;;;;;;;;5038395;28;4943;-60
2023/06/24 12:49:15;;;;;;;;;;;;;;;;;;5035679;28;4487;-60
2023/06/24 12:51:40;;;;;;;;;;;;;;;;;;5039562;28;4497;-60
2023/06/24 12:54:05;;;;;;;;;;;;;;;;;;5036759;28;3327;-61
2023/06/24 12:56:31;;;;;;;;;;;;;;;;;;5035236;28;4802;-60
2023/06/24 12:58:56;;;;;;;;;;;;;;;;;;5044512;28;5446;-59
2023/06/24 13:01:21;;;;;;;;;;;;;;;;;;5032972;28;5393;-61
2023/06/24 13:03:46;;;;;;;;;;;;;;;;;;5041495;28;5081;-62
2023/06/24 13:06:14;;;;;;;;;;;;;;;;;;5040726;28;2690;-60
2023/06/24 13:08:39;;;;;;;;;;;;;;;;;;5042109;28;5098;-60
2023/06/24 13:11:04;;;;;;;;;;;;;;;;;;5034567;28;4594;-62
2023/06/24 13:13:29;;;;;;;;;;;;;;;;;;5039794;28;5024;-57
2023/06/24 13:15:54;;;;;;;;;;;;;;;;;;5042778;28;4935;-56
2023/06/24 13:18:20;;;;;;;;;;;;;;;;;;5042306;28;3367;-57
2023/06/24 13:20:45;;;;;;;;;;;;;;;;;;5040132;28;4933;-57
2023/06/24 13:23:10;;;;;;;;;;;;;;;;;;5035614;28;4648;-58
2023/06/24 13:25:36;;;;;;;;;;;;;;;;;;5034384;28;5192;-61
2023/06/24 13:28:01;;;;;;;;;;;;;;;;;;5054015;28;5534;-59
2023/06/24 13:30:27;;;;;;;;;;;;;;;;;;5030385;28;4497;-60
2023/06/24 13:32:52;;;;;;;;;;;;;;;;;;5043732;28;5342;-62
2023/06/24 13:35:17;;;;;;;;;;;;;;;;;;5036511;28;5103;-61
2023/06/24 13:37:43;;;;;;;;;;;;;;;;;;5035623;28;4886;-62
2023/06/24 13:40:08;;;;;;;;;;;;;;;;;;5039505;28;4988;-62
2023/06/24 13:42:34;;;;;;;;;;;;;;;;;;5040064;28;5321;-64
2023/06/24 13:44:59;;;;;;;;;;;;;;;;;;5041889;28;2362;-64
2023/06/24 13:47:24;;;;;;;;;;;;;;;;;;5045198;28;5033;-63
2023/06/24 13:49:49;;;;;;;;;;;;;;;;;;5045187;28;5143;-63
2023/06/24 13:52:15;;;;;;;;;;;;;;;;;;5040845;28;4445;-64
2023/06/24 13:54:40;;;;;;;;;;;;;;;;;;5041737;28;4964;-64
2023/06/24 13:57:05;;;;;;;;;;;;;;;;;;5049992;28;1125;-63
2023/06/24 13:59:30;;;;;;;;;;;;;;;;;;5047125;28;5455;-63
2023/06/24 14:01:56;;;;;;;;;;;;;;;;;;5048511;28;5032;-63
2023/06/24 14:04:21;;;;;;;;;;;;;;;;;;5046534;28;5304;-63
2023/06/24 14:06:47;;;;;;;;;;;;;;;;;;5043815;28;5115;-63
2023/06/24 14:09:12;;;;;;;;;;;;;;;;;;5046817;28;1097;-63
2023/06/24 14:11:37;;;;;;;;;;;;;;;;;;5049697;28;5195;-63
2023/06/24 14:14:03;;;;;;;;;;;;;;;;;;5049466;28;4469;-64
2023/06/24 14:16:28;;;;;;;;;;;;;;;;;;5049537;28;5017;-62
2023/06/24 14:18:53;;;;;;;;;;;;;;;;;;5047584;28;4683;-63
2023/06/24 14:21:18;;;;;;;;;;;;;;;;;;5045715;28;3360;-63
2023/06/24 14:23:44;;;;;;;;;;;;;;;;;;5049811;28;4629;-63
2023/06/24 14:26:09;;;;;;;;;;;;;;;;;;5038932;28;5284;-61
2023/06/24 14:28:34;;;;;;;;;;;;;;;;;;5040470;28;4907;-62
2023/06/24 14:31:00;;;;;;;;;;;;;;;;;;5046143;28;4505;-62
2023/06/24 14:33:25;;;;;;;;;;;;;;;;;;5045344;28;5560;-61
2023/06/24 14:35:51;;;;;;;;;;;;;;;;;;5042347;28;3177;-62
2023/06/24 14:38:16;;;;;;;;;;;;;;;;;;5041776;28;5058;-61
2023/06/24 14:40:41;;;;;;;;;;;;;;;;;;5046840;28;5145;-62
2023/06/24 14:43:07;;;;;;;;;;;;;;;;;;5041605;28;4967;-62
2023/06/24 14:45:32;;;;;;;;;;;;;;;;;;5044182;28;5159;-61
2023/06/24 14:47:58;;;;;;;;;;;;;;;;;;5051231;28;3327;-61
2023/06/24 14:50:23;;;;;;;;;;;;;;;;;;5041447;28;5320;-64
2023/06/24 14:52:48;;;;;;;;;;;;;;;;;;5045747;28;4448;-64
2023/06/24 14:55:13;;;;;;;;;;;;;;;;;;5076349;28;4470;-62
2023/06/24 14:57:39;;;;;;;;;;;;;;;;;;5048938;28;5248;-62
2023/06/24 15:00:08;;;;;;;;;;;;;;;;;;5049541;28;1701;-64
2023/06/24 15:02:33;;;;;;;;;;;;;;;;;;5046982;28;4606;-63
2023/06/24 15:04:58;;;;;;;;;;;;;;;;;;5033215;28;4691;-63
2023/06/24 15:07:24;;;;;;;;;;;;;;;;;;5035811;28;4994;-61
2023/06/24 15:09:49;;;;;;;;;;;;;;;;;;5028949;28;4609;-62
2023/06/24 15:12:14;;;;;;;;;;;;;;;;;;5044712;28;1124;-62
2023/06/24 15:14:39;;;;;;;;;;;;;;;;;;5036877;28;4961;-62
2023/06/24 15:17:05;;;;;;;;;;;;;;;;;;5041321;28;5177;-63
2023/06/24 15:19:30;;;;;;;;;;;;;;;;;;5044933;28;5038;-63
2023/06/24 15:21:55;;;;;;;;;;;;;;;;;;5045692;28;4963;-62
2023/06/24 15:24:20;;;;;;;;;;;;;;;;;;5040515;28;1450;-68
2023/06/24 15:26:46;;;;;;;;;;;;;;;;;;5042323;28;4765;-61
2023/06/24 15:29:11;;;;;;;;;;;;;;;;;;5034492;28;1037;-59
2023/06/24 15:31:36;;;;;;;;;;;;;;;;;;5041355;28;1706;-60
2023/06/24 15:34:01;;;;;;;;;;;;;;;;;;5048318;28;1516;-60
2023/06/24 15:36:28;;;;;;;;;;;;;;;;;;5040923;28;1251;-57
2023/06/24 15:38:54;;;;;;;;;;;;;;;;;;5047374;28;1650;-58
2023/06/24 15:41:19;;;;;;;;;;;;;;;;;;5044784;28;993;-58
2023/06/24 15:43:45;;;;;;;;;;;;;;;;;;5032284;28;3167;-60
2023/06/24 15:46:10;;;;;;;;;;;;;;;;;;5033861;28;6529;-58
2023/06/24 15:48:36;;;;;;;;;;;;;;;;;;5035396;28;5288;-59
2023/06/24 15:51:02;;;;;;;;;;;;;;;;;;5038721;28;5334;-58
2023/06/24 15:53:28;;;;;;;;;;;;;;;;;;5044297;28;4984;-62
2023/06/24 15:55:53;;;;;;;;;;;;;;;;;;5067844;28;5102;-60
2023/06/24 15:58:18;;;;;;;;;;;;;;;;;;5045109;28;4963;-56
2023/06/24 16:00:43;;;;;;;;;;;;;;;;;;5043769;28;2166;-58
2023/06/24 16:03:09;;;;;;;;;;;;;;;;;;5041597;28;5222;-59
2023/06/24 16:05:34;;;;;;;;;;;;;;;;;;5045892;28;4905;-58
2023/06/24 16:07:59;;;;;;;;;;;;;;;;;;5046193;28;5059;-55
2023/06/24 16:10:25;;;;;;;;;;;;;;;;;;5046382;28;5169;-59
2023/06/24 16:12:50;;;;;;;;;;;;;;;;;;5044747;28;1949;-57
2023/06/24 16:15:15;;;;;;;;;;;;;;;;;;5045505;28;5080;-56
2023/06/24 16:17:40;;;;;;;;;;;;;;;;;;5045639;28;4666;-58
2023/06/24 16:20:06;;;;;;;;;;;;;;;;;;5042012;28;5408;-58
2023/06/24 16:22:32;;;;;;;;;;;;;;;;;;5045028;28;4878;-55
2023/06/24 16:24:57;;;;;;;;;;;;;;;;;;5035901;28;1657;-58
2023/06/24 16:27:22;;;;;;;;;;;;;;;;;;5045258;28;4918;-57
2023/06/24 16:29:48;;;;;;;;;;;;;;;;;;5037733;28;5097;-64
2023/06/24 16:32:13;;;;;;;;;;;;;;;;;;5072627;28;5102;-62
2023/06/24 16:34:38;;;;;;;;;;;;;;;;;;5046586;28;4465;-60
2023/06/24 16:37:04;;;;;;;;;;;;;;;;;;5048610;28;1086;-59
2023/06/24 16:39:29;;;;;;;;;;;;;;;;;;5036910;28;4523;-60
2023/06/24 16:41:55;;;;;;;;;;;;;;;;;;5044368;28;4533;-60
2023/06/24 16:44:20;;;;;;;;;;;;;;;;;;5031611;28;4629;-62
2023/06/24 16:46:45;;;;;;;;;;;;;;;;;;5036548;28;5168;-60
2023/06/24 16:49:10;;;;;;;;;;;;;;;;;;5037591;28;1487;-59
2023/06/24 16:51:36;;;;;;;;;;;;;;;;;;5038696;28;4918;-59
2023/06/24 16:54:01;;;;;;;;;;;;;;;;;;5038417;28;5098;-59